createdAt,value
2022-09-12T00:01:31.491Z,10.53
2022-09-12T00:04:02.205Z,11.03
2022-09-12T00:06:33.013Z,10.43
2022-09-12T00:09:06.280Z,10.47
2022-09-12T00:11:38.543Z,10.67
2022-09-12T00:14:09.082Z,10.23
2022-09-12T00:16:39.214Z,9.90
2022-09-12T00:19:08.770Z,10.63
2022-09-12T00:21:38.991Z,11.03
2022-09-12T00:24:08.221Z,10.47
2022-09-12T00:26:38.674Z,10.90
2022-09-12T00:29:07.229Z,10.60
2022-09-12T00:31:36.468Z,11.60
2022-09-12T00:34:05.025Z,11.40
2022-09-12T00:36:33.550Z,11.43
2022-09-12T00:39:02.130Z,10.47
2022-09-12T00:41:32.732Z,10.23
2022-09-12T00:44:05.820Z,11.47
2022-09-12T00:46:39.279Z,10.10
2022-09-12T00:49:15.489Z,10.80
2022-09-12T00:51:48.108Z,10.03
2022-09-12T00:54:21.472Z,10.67
2022-09-12T00:56:53.975Z,11.23
2022-09-12T00:59:26.915Z,10.97
2022-09-12T01:01:57.398Z,10.80
2022-09-12T01:04:28.443Z,11.00
2022-09-12T01:06:59.237Z,9.60
2022-09-12T01:09:27.932Z,9.40
2022-09-12T01:11:57.160Z,9.93
2022-09-12T01:14:27.247Z,9.80
2022-09-12T01:16:55.884Z,9.43
2022-09-12T01:19:53.480Z,8.90
2022-09-12T01:22:42.678Z,9.07
2022-09-12T01:25:20.405Z,9.10
2022-09-12T01:28:01.886Z,9.60
2022-09-12T01:30:46.773Z,9.40
2022-09-12T01:33:47.716Z,9.87
2022-09-12T01:36:41.593Z,9.60
2022-09-12T01:39:22.201Z,8.80
2022-09-12T01:41:56.943Z,9.13
2022-09-12T01:44:34.753Z,8.80
2022-09-12T01:47:11.215Z,10.20
2022-09-12T01:49:46.464Z,8.20
2022-09-12T01:52:19.768Z,8.80
2022-09-12T01:54:51.926Z,8.63
2022-09-12T01:57:26.679Z,8.70
2022-09-12T01:59:59.548Z,8.80
2022-09-12T02:02:33.981Z,8.73
2022-09-12T02:05:07.133Z,8.90
2022-09-12T02:07:40.603Z,8.63
2022-09-12T02:10:13.579Z,9.00
2022-09-12T02:12:47.592Z,9.27
2022-09-12T02:15:19.972Z,8.93
2022-09-12T02:17:52.199Z,9.20
2022-09-12T02:20:44.308Z,8.83
2022-09-12T02:23:16.808Z,8.90
2022-09-12T02:25:48.440Z,9.07
2022-09-12T02:28:21.786Z,9.47
2022-09-12T02:30:57.803Z,9.57
2022-09-12T02:33:32.197Z,9.40
2022-09-12T02:36:09.490Z,9.30
2022-09-12T02:38:45.543Z,9.50
2022-09-12T02:41:18.173Z,9.30
2022-09-12T02:43:47.171Z,8.70
2022-09-12T02:46:20.210Z,9.60
2022-09-12T02:48:50.353Z,9.77
2022-09-12T02:51:23.526Z,9.43
2022-09-12T02:53:52.685Z,9.23
2022-09-12T02:56:27.553Z,8.63
2022-09-12T02:59:00.033Z,8.20
2022-09-12T03:01:40.673Z,8.50
2022-09-12T03:04:33.966Z,8.70
2022-09-12T03:07:12.533Z,8.37
2022-09-12T03:09:48.389Z,8.27
2022-09-12T03:12:29.148Z,8.70
2022-09-12T03:15:16.714Z,9.13
2022-09-12T03:18:04.774Z,8.03
2022-09-12T03:20:46.394Z,8.43
2022-09-12T03:23:26.153Z,8.50
2022-09-12T03:26:00.763Z,7.87
2022-09-12T03:28:29.669Z,8.27
2022-09-12T03:30:59.602Z,7.70
2022-09-12T03:33:28.704Z,8.13
2022-09-12T03:35:58.921Z,8.20
2022-09-12T03:38:27.526Z,7.93
2022-09-12T03:40:56.040Z,7.83
2022-09-12T03:43:24.531Z,7.47
2022-09-12T03:45:53.532Z,7.73
2022-09-12T03:48:22.513Z,8.50
2022-09-12T03:50:51.063Z,8.10
2022-09-12T03:53:21.116Z,8.00
2022-09-12T03:55:49.598Z,7.93
2022-09-12T03:58:18.102Z,7.70
2022-09-12T04:00:47.360Z,6.90
2022-09-12T04:03:16.024Z,8.13
2022-09-12T04:05:44.638Z,6.73
2022-09-12T04:08:13.143Z,6.33
2022-09-12T04:10:43.450Z,6.47
2022-09-12T04:13:11.997Z,6.17
2022-09-12T04:15:40.543Z,6.20
2022-09-12T04:18:09.064Z,6.10
2022-09-12T04:20:38.084Z,6.33
2022-09-12T04:23:06.574Z,6.00
2022-09-12T04:25:35.042Z,6.27
2022-09-12T04:28:05.303Z,6.67
2022-09-12T04:30:35.501Z,6.33
2022-09-12T04:33:08.015Z,6.93
2022-09-12T04:35:37.292Z,7.00
2022-09-12T04:38:05.745Z,7.37
2022-09-12T04:40:34.437Z,6.30
2022-09-12T04:43:04.729Z,5.80
2022-09-12T04:45:33.400Z,6.13
2022-09-12T04:48:02.144Z,5.57
2022-09-12T04:50:30.763Z,5.40
2022-09-12T04:52:59.344Z,5.20
2022-09-12T04:55:28.451Z,4.70
2022-09-12T04:57:56.975Z,4.90
2022-09-12T05:00:26.966Z,5.03
2022-09-12T05:02:55.440Z,5.03
2022-09-12T05:05:23.878Z,5.03
2022-09-12T05:07:52.454Z,4.93
2022-09-12T05:10:21.010Z,4.50
2022-09-12T05:12:49.855Z,4.20
2022-09-12T05:15:18.368Z,4.70
2022-09-12T05:17:48.728Z,3.83
2022-09-12T05:20:17.489Z,3.90
2022-09-12T05:22:45.967Z,3.80
2022-09-12T05:25:14.476Z,3.57
2022-09-12T05:27:45.472Z,4.33
2022-09-12T05:30:16.064Z,4.50
2022-09-12T05:32:44.561Z,4.47
2022-09-12T05:35:14.575Z,4.50
2022-09-12T05:37:44.694Z,4.50
2022-09-12T05:40:16.279Z,4.40
2022-09-12T05:42:44.948Z,4.50
2022-09-12T05:45:14.325Z,4.67
2022-09-12T05:47:43.954Z,4.37
2022-09-12T05:50:14.050Z,4.37
2022-09-12T05:52:42.997Z,4.13
2022-09-12T05:55:11.925Z,4.30
2022-09-12T05:57:40.691Z,4.20
2022-09-12T06:00:10.833Z,5.00
2022-09-12T06:02:42.709Z,5.30
2022-09-12T06:05:11.343Z,5.27
2022-09-12T06:07:41.308Z,5.43
2022-09-12T06:10:10.251Z,5.43
2022-09-12T06:12:38.668Z,5.40
2022-09-12T06:15:08.083Z,5.23
2022-09-12T06:17:36.549Z,4.90
2022-09-12T06:20:05.504Z,5.47
2022-09-12T06:22:34.047Z,6.47
2022-09-12T06:25:05.204Z,6.53
2022-09-12T06:27:33.726Z,11.40
2022-09-12T06:30:02.303Z,7.77
2022-09-12T06:32:32.470Z,9.43
2022-09-12T06:35:01.122Z,8.93
2022-09-12T06:37:29.611Z,8.93
2022-09-12T06:39:58.226Z,9.30
2022-09-12T06:42:28.652Z,10.00
2022-09-12T06:45:00.227Z,11.03
2022-09-12T06:47:28.800Z,10.90
2022-09-12T06:49:57.519Z,9.93
2022-09-12T06:52:26.259Z,9.90
2022-09-12T06:54:54.714Z,6.87
2022-09-12T06:57:23.145Z,6.40
2022-09-12T06:59:53.363Z,7.90
2022-09-12T07:02:21.885Z,8.90
2022-09-12T07:04:51.878Z,9.23
2022-09-12T07:07:20.481Z,10.60
2022-09-12T07:09:49.496Z,10.98
2022-09-12T07:12:18.106Z,10.98
2022-09-12T07:14:46.588Z,10.18
2022-09-12T07:17:16.866Z,11.48
2022-09-12T07:19:45.475Z,12.00
2022-09-12T07:22:14.049Z,11.65
2022-09-12T07:24:42.531Z,11.70
2022-09-12T07:27:10.872Z,11.63
2022-09-12T07:29:39.397Z,11.25
2022-09-12T07:32:08.222Z,11.02
2022-09-12T07:34:38.308Z,11.57
2022-09-12T07:37:06.816Z,11.45
2022-09-12T07:39:35.558Z,11.77
2022-09-12T07:42:03.968Z,11.52
2022-09-12T07:44:32.806Z,11.18
2022-09-12T07:47:03.244Z,9.82
2022-09-12T07:49:31.840Z,10.10
2022-09-12T07:52:01.821Z,10.50
2022-09-12T07:54:30.270Z,10.50
2022-09-12T07:56:58.783Z,10.07
2022-09-12T07:59:48.825Z,9.82
2022-09-12T08:02:17.680Z,10.25
2022-09-12T08:04:47.901Z,9.02
2022-09-12T08:07:19.640Z,9.45
2022-09-12T08:09:48.656Z,9.55
2022-09-12T08:12:17.909Z,9.60
2022-09-12T08:14:46.318Z,10.75
2022-09-12T08:17:15.482Z,9.60
2022-09-12T08:19:44.983Z,9.60
2022-09-12T08:22:13.742Z,9.57
2022-09-12T08:24:44.527Z,9.20
2022-09-12T08:27:13.125Z,9.13
2022-09-12T08:29:41.867Z,9.55
2022-09-12T08:32:10.772Z,9.70
2022-09-12T08:34:39.264Z,9.48
2022-09-12T08:37:07.704Z,10.20
2022-09-12T08:39:36.032Z,10.70
2022-09-12T08:42:07.679Z,10.07
2022-09-12T08:45:06.620Z,9.77
2022-09-12T08:47:40.030Z,10.27
2022-09-12T08:50:16.571Z,9.80
2022-09-12T08:52:52.206Z,10.20
2022-09-12T08:55:32.417Z,10.02
2022-09-12T08:58:07.038Z,10.45
2022-09-12T09:00:44.893Z,10.07
2022-09-12T09:03:36.767Z,9.95
2022-09-12T09:06:14.360Z,9.77
2022-09-12T09:08:58.659Z,9.60
2022-09-12T09:11:43.039Z,10.63
2022-09-12T09:14:51.408Z,10.30
2022-09-12T09:17:30.515Z,10.20
2022-09-12T09:20:04.991Z,10.23
2022-09-12T09:22:41.510Z,9.40
2022-09-12T09:25:22.078Z,9.60
2022-09-12T09:27:58.487Z,9.65
2022-09-12T09:30:28.818Z,8.75
2022-09-12T09:33:01.560Z,8.55
2022-09-12T09:35:40.408Z,8.98
2022-09-12T09:38:24.614Z,8.63
2022-09-12T09:41:04.835Z,8.30
2022-09-12T09:43:33.389Z,8.05
2022-09-12T09:46:03.532Z,9.10
2022-09-12T09:48:34.253Z,6.60
2022-09-12T09:51:07.238Z,6.85
2022-09-12T09:53:41.646Z,6.55
2022-09-12T09:56:19.239Z,6.80
2022-09-12T09:58:48.794Z,6.18
2022-09-12T10:01:20.095Z,7.13
2022-09-12T10:03:53.831Z,5.72
2022-09-12T10:06:32.413Z,5.50
2022-09-12T10:09:18.936Z,5.63
2022-09-12T10:11:47.650Z,5.32
2022-09-12T10:14:36.773Z,6.68
2022-09-12T10:17:34.258Z,5.95
2022-09-12T10:20:20.872Z,7.15
2022-09-12T10:22:50.867Z,6.25
2022-09-12T10:25:21.248Z,6.30
2022-09-12T10:27:55.472Z,6.70
2022-09-12T10:30:26.156Z,5.75
2022-09-12T10:33:06.304Z,6.18
2022-09-12T10:35:47.236Z,5.93
2022-09-12T10:38:21.239Z,6.82
2022-09-12T10:40:58.015Z,6.97
2022-09-12T10:43:29.514Z,6.75
2022-09-12T10:46:22.063Z,6.05
2022-09-12T10:48:53.593Z,5.50
2022-09-12T10:51:29.853Z,5.90
2022-09-12T10:54:00.702Z,6.78
2022-09-12T10:56:32.660Z,6.10
2022-09-12T10:59:20.141Z,5.70
2022-09-12T11:01:51.660Z,6.18
2022-09-12T11:04:30.128Z,6.30
2022-09-12T11:07:19.175Z,5.85
2022-09-12T11:09:55.246Z,7.20
2022-09-12T11:12:32.650Z,7.60
2022-09-12T11:15:17.812Z,6.75
2022-09-12T11:17:55.703Z,6.35
2022-09-12T11:21:00.430Z,5.60
2022-09-12T11:23:52.214Z,5.97
2022-09-12T11:26:36.251Z,4.82
2022-09-12T11:29:12.640Z,5.03
2022-09-12T11:32:04.407Z,5.47
2022-09-12T11:34:44.910Z,5.05
2022-09-12T11:37:31.932Z,5.57
2022-09-12T11:40:10.279Z,5.75
2022-09-12T11:42:41.856Z,5.00
2022-09-12T11:45:18.125Z,5.05
2022-09-12T11:47:51.551Z,4.78
2022-09-12T11:50:26.232Z,4.93
2022-09-12T11:53:01.596Z,5.10
2022-09-12T11:55:40.219Z,5.50
2022-09-12T11:58:10.607Z,5.30
2022-09-12T12:00:45.377Z,5.03
2022-09-12T12:03:19.535Z,4.80
2022-09-12T12:05:54.801Z,4.70
2022-09-12T12:08:28.095Z,4.80
2022-09-12T12:10:59.628Z,4.35
2022-09-12T12:13:33.102Z,5.00
2022-09-12T12:16:07.321Z,4.57
2022-09-12T12:18:39.003Z,4.57
2022-09-12T12:21:40.211Z,4.68
2022-09-12T12:24:20.923Z,4.68
2022-09-12T12:27:01.918Z,4.60
2022-09-12T12:29:44.316Z,5.07
2022-09-12T12:32:24.986Z,4.00
2022-09-12T12:35:17.059Z,4.20
2022-09-12T12:38:04.147Z,4.25
2022-09-12T12:40:34.151Z,5.00
2022-09-12T12:43:31.582Z,4.70
2022-09-12T12:46:12.301Z,4.45
2022-09-12T12:49:03.522Z,4.40
2022-09-12T12:51:54.063Z,4.40
2022-09-12T12:54:31.851Z,4.43
2022-09-12T12:57:17.593Z,4.57
2022-09-12T12:59:52.766Z,4.22
2022-09-12T13:02:25.215Z,4.60
2022-09-12T13:04:55.518Z,4.00
2022-09-12T13:07:32.798Z,4.25
2022-09-12T13:10:03.150Z,4.20
2022-09-12T13:12:36.982Z,4.38
2022-09-12T13:15:26.681Z,4.30
2022-09-12T13:17:59.534Z,4.40
2022-09-12T13:20:31.719Z,4.32
2022-09-12T13:23:00.527Z,4.13
2022-09-12T13:25:31.586Z,4.55
2022-09-12T13:28:09.479Z,4.35
2022-09-12T13:30:40.948Z,4.47
2022-09-12T13:33:22.023Z,4.40
2022-09-12T13:36:07.284Z,4.32
2022-09-12T13:38:45.724Z,4.30
2022-09-12T13:41:25.392Z,4.30
2022-09-12T13:43:55.457Z,4.43
2022-09-12T13:46:30.589Z,4.50
2022-09-12T13:49:00.671Z,4.50
2022-09-12T13:51:32.371Z,4.15
2022-09-12T13:54:04.371Z,4.68
2022-09-12T13:56:32.931Z,4.45
2022-09-12T13:59:04.161Z,4.65
2022-09-12T14:01:41.375Z,4.40
2022-09-12T14:04:34.539Z,4.78
2022-09-12T14:07:10.185Z,4.20
2022-09-12T14:09:41.707Z,4.50
2022-09-12T14:12:30.375Z,4.70
2022-09-12T14:15:00.381Z,4.13
2022-09-12T14:17:33.892Z,4.57
2022-09-12T14:20:07.039Z,3.72
2022-09-12T14:22:38.904Z,4.13
2022-09-12T14:25:10.899Z,4.57
2022-09-12T14:27:45.815Z,4.40
2022-09-12T14:30:25.500Z,4.65
2022-09-12T14:33:06.024Z,4.60
2022-09-12T14:35:34.529Z,4.32
2022-09-12T14:38:09.398Z,4.30
2022-09-12T14:40:43.802Z,4.13
2022-09-12T14:43:21.982Z,4.53
2022-09-12T14:45:59.548Z,4.88
2022-09-12T14:48:30.570Z,5.20
2022-09-12T14:51:00.126Z,4.40
2022-09-12T14:53:34.902Z,4.40
2022-09-12T14:56:12.588Z,4.50
2022-09-12T14:58:42.534Z,4.50
2022-09-12T15:01:26.790Z,4.65
2022-09-12T15:03:57.537Z,4.50
2022-09-12T15:06:29.860Z,4.55
2022-09-12T15:09:00.721Z,4.72
2022-09-12T15:11:29.370Z,4.20
2022-09-12T15:13:57.887Z,4.35
2022-09-12T15:16:27.840Z,4.50
2022-09-12T15:18:56.246Z,4.25
2022-09-12T15:21:24.779Z,4.13
2022-09-12T15:23:54.217Z,4.15
2022-09-12T15:26:26.575Z,4.30
2022-09-12T15:28:55.326Z,3.80
2022-09-12T15:31:28.357Z,4.07
2022-09-12T15:33:58.330Z,4.15
2022-09-12T15:36:29.015Z,3.97
2022-09-12T15:38:57.741Z,4.00
2022-09-12T15:41:30.910Z,4.15
2022-09-12T15:43:59.448Z,3.97
2022-09-12T15:46:29.535Z,3.90
2022-09-12T15:48:58.323Z,4.20
2022-09-12T15:51:26.795Z,4.00
2022-09-12T15:53:55.316Z,4.13
2022-09-12T15:56:24.187Z,4.15
2022-09-12T15:59:00.609Z,4.18
2022-09-12T16:01:30.767Z,4.20
2022-09-12T16:03:59.688Z,4.28
2022-09-12T16:06:32.481Z,3.85
2022-09-12T16:09:03.431Z,4.00
2022-09-12T16:11:33.088Z,4.07
2022-09-12T16:14:01.487Z,4.07
2022-09-12T16:16:31.549Z,4.22
2022-09-12T16:19:00.020Z,4.03
2022-09-12T16:21:28.544Z,4.07
2022-09-12T16:23:56.977Z,4.10
2022-09-12T16:26:25.432Z,4.03
2022-09-12T16:28:56.964Z,4.28
2022-09-12T16:31:26.045Z,4.32
2022-09-12T16:33:56.131Z,4.20
2022-09-12T16:36:24.918Z,4.10
2022-09-12T16:38:55.012Z,3.97
2022-09-12T16:41:25.158Z,4.28
2022-09-12T16:43:53.945Z,4.25
2022-09-12T16:46:24.324Z,4.88
2022-09-12T16:48:56.023Z,4.03
2022-09-12T16:51:26.960Z,4.07
2022-09-12T16:53:56.583Z,5.20
2022-09-12T16:56:25.598Z,4.25
2022-09-12T16:58:54.406Z,4.15
2022-09-12T17:01:25.213Z,4.68
2022-09-12T17:03:57.071Z,4.32
2022-09-12T17:06:26.461Z,4.70
2022-09-12T17:08:56.359Z,4.80
2022-09-12T17:11:26.799Z,5.65
2022-09-12T17:14:06.209Z,4.70
2022-09-12T17:16:36.372Z,4.93
2022-09-12T17:19:07.042Z,4.80
2022-09-12T17:21:36.503Z,4.68
2022-09-12T17:24:05.443Z,4.85
2022-09-12T17:26:34.176Z,4.80
2022-09-12T17:29:03.245Z,4.97
2022-09-12T17:31:31.954Z,5.13
2022-09-12T17:34:01.546Z,4.93
2022-09-12T17:36:32.419Z,4.80
2022-09-12T17:39:01.070Z,5.05
2022-09-12T17:41:31.875Z,5.63
2022-09-12T17:44:02.737Z,6.07
2022-09-12T17:46:35.093Z,5.50
2022-09-12T17:49:06.177Z,5.28
2022-09-12T17:51:36.511Z,5.45
2022-09-12T17:54:08.339Z,5.70
2022-09-12T17:56:37.848Z,6.15
2022-09-12T17:59:08.230Z,5.93
2022-09-12T18:01:53.897Z,6.18
2022-09-12T18:04:22.532Z,5.80
2022-09-12T18:06:52.971Z,6.10
2022-09-12T18:09:23.488Z,6.35
2022-09-12T18:11:52.673Z,6.68
2022-09-12T18:14:21.616Z,6.43
2022-09-12T18:16:50.344Z,5.88
2022-09-12T18:19:18.872Z,6.50
2022-09-12T18:21:47.395Z,7.22
2022-09-12T18:24:17.382Z,6.55
2022-09-12T18:26:45.982Z,6.60
2022-09-12T18:29:17.078Z,6.75
2022-09-12T18:31:46.802Z,6.80
2022-09-12T18:34:15.815Z,6.80
2022-09-12T18:36:45.869Z,7.25
2022-09-12T18:39:15.391Z,7.25
2022-09-12T18:41:46.549Z,7.05
2022-09-12T18:44:15.285Z,7.53
2022-09-12T18:46:43.988Z,7.40
2022-09-12T18:49:12.630Z,7.32
2022-09-12T18:51:41.980Z,6.80
2022-09-12T18:54:14.594Z,7.20
2022-09-12T18:56:45.769Z,7.22
2022-09-12T18:59:15.115Z,7.20
2022-09-12T19:01:44.512Z,7.60
2022-09-12T19:04:14.314Z,6.90
2022-09-12T19:06:44.740Z,7.03
2022-09-12T19:09:14.897Z,7.15
2022-09-12T19:11:49.860Z,7.67
2022-09-12T19:14:19.932Z,8.07
2022-09-12T19:16:48.430Z,8.03
2022-09-12T19:19:16.910Z,7.55
2022-09-12T19:21:45.686Z,7.65
2022-09-12T19:24:14.879Z,7.23
2022-09-12T19:26:45.238Z,7.60
2022-09-12T19:29:14.789Z,8.27
2022-09-12T19:31:43.359Z,7.80
2022-09-12T19:34:13.422Z,8.07
2022-09-12T19:36:47.118Z,7.47
2022-09-12T19:39:17.417Z,8.10
2022-09-12T19:41:48.041Z,7.90
2022-09-12T19:44:19.271Z,7.50
2022-09-12T19:46:47.778Z,7.63
2022-09-12T19:49:16.249Z,7.70
2022-09-12T19:51:45.061Z,7.50
2022-09-12T19:54:13.788Z,7.87
2022-09-12T19:56:42.450Z,7.13
2022-09-12T19:59:12.910Z,7.33
2022-09-12T20:01:41.749Z,7.60
2022-09-12T20:04:10.361Z,7.30
2022-09-12T20:06:38.857Z,7.50
2022-09-12T20:09:07.525Z,7.63
2022-09-12T20:11:36.186Z,7.10
2022-09-12T20:14:04.729Z,7.27
2022-09-12T20:16:34.880Z,6.97
2022-09-12T20:19:07.114Z,7.13
2022-09-12T20:21:36.552Z,7.43
2022-09-12T20:24:07.320Z,7.43
2022-09-12T20:26:36.026Z,7.70
2022-09-12T20:29:05.453Z,7.67
2022-09-12T20:31:36.361Z,8.17
2022-09-12T20:34:05.316Z,7.73
2022-09-12T20:36:33.990Z,7.60
2022-09-12T20:39:03.230Z,7.97
2022-09-12T20:41:33.590Z,8.00
2022-09-12T20:44:02.115Z,8.10
2022-09-12T20:46:30.714Z,7.63
2022-09-12T20:49:00.846Z,7.80
2022-09-12T20:51:30.501Z,7.57
2022-09-12T20:54:00.248Z,7.57
2022-09-12T20:56:29.822Z,8.43
2022-09-12T20:58:58.621Z,8.10
2022-09-12T21:01:29.094Z,8.30
2022-09-12T21:03:57.627Z,7.80
2022-09-12T21:06:28.058Z,8.63
2022-09-12T21:09:00.519Z,7.93
2022-09-12T21:11:29.800Z,7.83
2022-09-12T21:13:58.778Z,7.90
2022-09-12T21:16:27.606Z,7.80
2022-09-12T21:18:57.448Z,8.50
2022-09-12T21:21:28.163Z,8.23
2022-09-12T21:23:59.688Z,8.57
2022-09-12T21:26:28.461Z,8.00
2022-09-12T21:28:57.542Z,7.77
2022-09-12T21:31:27.012Z,7.80
2022-09-12T21:33:55.777Z,7.57
2022-09-12T21:36:27.208Z,7.70
2022-09-12T21:38:59.336Z,7.90
2022-09-12T21:41:28.892Z,8.37
2022-09-12T21:43:57.464Z,7.80
2022-09-12T21:46:26.109Z,8.03
2022-09-12T21:48:54.722Z,7.93
2022-09-12T21:51:23.316Z,7.90
2022-09-12T21:53:53.286Z,8.23
2022-09-12T21:56:22.162Z,8.23
2022-09-12T21:58:50.655Z,8.60
2022-09-12T22:01:19.331Z,8.47
2022-09-12T22:03:48.008Z,8.50
2022-09-12T22:06:19.582Z,8.30
2022-09-12T22:08:52.307Z,8.27
2022-09-12T22:11:21.408Z,8.30
2022-09-12T22:13:50.066Z,8.03
2022-09-12T22:16:18.729Z,8.40
2022-09-12T22:18:48.069Z,8.90
2022-09-12T22:21:19.191Z,8.80
2022-09-12T22:24:05.354Z,8.90
2022-09-12T22:26:42.290Z,8.00
2022-09-12T22:29:13.387Z,8.50
2022-09-12T22:31:42.666Z,8.67
2022-09-12T22:34:11.491Z,8.80
2022-09-12T22:36:39.908Z,9.50
2022-09-12T22:39:08.624Z,8.90
2022-09-12T22:41:38.551Z,9.30
2022-09-12T22:44:07.418Z,8.80
2022-09-12T22:46:35.978Z,8.90
2022-09-12T22:49:05.349Z,9.50
2022-09-12T22:51:34.289Z,9.67
2022-09-12T22:54:02.805Z,9.10
2022-09-12T22:56:31.239Z,8.93
2022-09-12T22:59:01.309Z,9.73
2022-09-12T23:01:29.897Z,9.70
2022-09-12T23:03:58.646Z,9.00
2022-09-12T23:06:27.188Z,9.30
2022-09-12T23:08:56.198Z,9.83
2022-09-12T23:11:25.118Z,10.23
2022-09-12T23:13:53.624Z,9.47
2022-09-12T23:16:25.066Z,9.30
2022-09-12T23:18:53.731Z,9.70
2022-09-12T23:21:23.304Z,9.33
2022-09-12T23:23:52.199Z,9.37
2022-09-12T23:26:22.685Z,9.63
2022-09-12T23:28:52.947Z,9.20
2022-09-12T23:31:23.931Z,9.83
2022-09-12T23:33:54.322Z,9.67
2022-09-12T23:36:23.776Z,9.83
2022-09-12T23:38:53.015Z,9.43
2022-09-12T23:41:22.241Z,9.87
2022-09-12T23:43:50.893Z,9.77
2022-09-12T23:46:20.282Z,10.20
2022-09-12T23:48:50.774Z,9.70
2022-09-12T23:51:19.298Z,9.63
2022-09-12T23:53:47.857Z,9.87
2022-09-12T23:56:16.350Z,9.37
2022-09-12T23:58:44.862Z,9.73
